Time;durP1;ratioP1;P1;durP2;ratioP2;P2;SDS_P1;SDS_P2;PMS_P1;PMS_P2;Temp;Humidity;BMP_temperature;BMP_pressure;BME280_temperature;BME280_humidity;BME280_pressure;Samples;Min_cycle;Max_cycle;Signal;HPM_P1;HPM_P2
2023/12/27 00:01:58;;;;;;;;;0.00;0.00;;;;;14.89;100.00;101778.75;5057048;28;45379;-81
2023/12/27 00:04:23;;;;;;;;;0.00;0.00;;;;;14.82;100.00;101785.97;5039186;28;45535;-81
2023/12/27 00:06:49;;;;;;;;;0.00;0.00;;;;;14.86;100.00;101784.97;5056675;28;57189;-81
2023/12/27 00:09:15;;;;;;;;;0.00;0.00;;;;;14.83;100.00;101765.84;5038873;28;45346;-81
2023/12/27 00:11:40;;;;;;;;;0.00;0.00;;;;;14.82;100.00;101759.75;5056223;28;68952;-81
2023/12/27 00:14:05;;;;;;;;;0.33;0.33;;;;;14.80;100.00;101758.94;5055672;28;69433;-81
2023/12/27 00:16:31;;;;;;;;;0.00;0.00;;;;;14.80;100.00;101748.47;5038668;28;46970;-81
2023/12/27 00:18:56;;;;;;;;;0.00;0.00;;;;;14.80;100.00;101756.34;5038595;28;47458;-82
2023/12/27 00:21:22;;;;;;;;;0.00;0.00;;;;;14.78;100.00;101773.84;5038265;28;58170;-81
2023/12/27 00:23:47;;;;;;;;;0.00;0.00;;;;;14.76;100.00;101780.03;5056825;28;45377;-81
2023/12/27 00:26:12;;;;;;;;;0.00;0.00;;;;;14.70;100.00;101768.84;5055963;28;64349;-81
2023/12/27 00:28:38;;;;;;;;;0.00;0.00;;;;;14.73;100.00;101760.03;5055234;28;70765;-80
2023/12/27 00:31:03;;;;;;;;;0.00;0.00;;;;;14.76;100.00;101761.69;5056525;28;50741;-81
2023/12/27 00:33:29;;;;;;;;;0.00;0.00;;;;;14.77;100.00;101752.94;5056778;28;45366;-81
2023/12/27 00:35:54;;;;;;;;;0.00;0.00;;;;;14.79;100.00;101744.13;5056526;28;46584;-81
2023/12/27 00:38:19;;;;;;;;;0.00;0.00;;;;;14.78;100.00;101738.91;5055334;28;73168;-81
2023/12/27 00:40:45;;;;;;;;;0.00;0.00;;;;;14.76;100.00;101736.34;5038129;28;56378;-81
2023/12/27 00:43:10;;;;;;;;;0.00;0.00;;;;;14.80;100.00;101739.72;5056088;28;45619;-81
2023/12/27 00:45:36;;;;;;;;;0.00;0.00;;;;;14.80;100.00;101729.25;5056217;28;45438;-81
2023/12/27 00:48:01;;;;;;;;;0.00;0.00;;;;;14.80;100.00;101732.75;5037439;28;69221;-81
2023/12/27 00:50:26;;;;;;;;;0.00;0.00;;;;;14.80;100.00;101734.47;5056360;28;45391;-81
2023/12/27 00:52:52;;;;;;;;;0.00;0.00;;;;;14.79;100.00;101744.13;5055912;28;57830;-81
2023/12/27 00:55:17;;;;;;;;;0.00;0.00;;;;;14.81;100.00;101741.47;5055197;28;72510;-81
2023/12/27 00:57:42;;;;;;;;;0.00;0.00;;;;;14.80;100.00;101730.13;5054910;28;68209;-81
2023/12/27 01:00:08;;;;;;;;;0.00;0.00;;;;;14.83;100.00;101723.91;5037615;28;60989;-81
2023/12/27 01:02:35;;;;;;;;;0.00;0.00;;;;;14.82;100.00;101707.34;5056203;28;45581;-81
2023/12/27 01:05:00;;;;;;;;;0.00;0.00;;;;;14.88;100.00;101707.13;5055994;28;46918;-81
2023/12/27 01:07:26;;;;;;;;;0.00;0.00;;;;;14.83;100.00;101716.06;5055492;28;45262;-81
2023/12/27 01:09:51;;;;;;;;;0.00;0.00;;;;;14.83;100.00;101718.69;5054960;28;68948;-81
2023/12/27 01:12:16;;;;;;;;;0.00;0.00;;;;;14.86;100.00;101721.22;5037785;28;45366;-81
2023/12/27 01:14:42;;;;;;;;;0.00;0.00;;;;;14.88;100.00;101746.47;5054785;28;76685;-81
2023/12/27 01:17:07;;;;;;;;;0.00;0.00;;;;;14.88;100.00;101745.59;5055740;28;45901;-81
2023/12/27 01:19:33;;;;;;;;;0.00;0.00;;;;;14.87;100.00;101739.47;5055070;28;67082;-81
2023/12/27 01:21:58;;;;;;;;;0.00;0.00;;;;;14.90;100.00;101735.94;5055514;28;56635;-81
2023/12/27 01:24:23;;;;;;;;;13.00;13.00;;;;;14.86;100.00;101729.91;5036978;28;71830;-81
2023/12/27 01:26:49;;;;;;;;;0.00;0.00;;;;;14.84;100.00;101725.63;5054225;28;72879;-81
2023/12/27 01:29:14;;;;;;;;;3.00;3.00;;;;;14.83;100.00;101719.53;5054915;28;68262;-81
2023/12/27 01:31:39;;;;;;;;;0.00;0.00;;;;;14.82;100.00;101720.44;5037903;28;45492;-81
2023/12/27 01:34:05;;;;;;;;;0.00;0.00;;;;;14.81;100.00;101716.09;5054778;28;74376;-81
2023/12/27 01:36:30;;;;;;;;;0.00;0.00;;;;;14.80;100.00;101701.28;5054810;28;68934;-81
2023/12/27 01:38:56;;;;;;;;;0.00;0.00;;;;;14.76;100.00;101723.22;5055522;28;45408;-81
2023/12/27 01:41:21;;;;;;;;;0.00;0.00;;;;;14.71;100.00;101735.66;5037353;28;45455;-81
2023/12/27 01:43:47;;;;;;;;;0.00;0.00;;;;;14.67;100.00;101737.50;5054823;28;60687;-81
2023/12/27 01:46:12;;;;;;;;;0.00;0.00;;;;;14.67;100.00;101739.22;5054584;28;73289;-81
2023/12/27 01:48:38;;;;;;;;;0.00;0.00;;;;;14.62;100.00;101736.78;5036670;28;67722;-81
2023/12/27 01:51:03;;;;;;;;;0.00;0.00;;;;;14.57;100.00;101732.53;5055738;28;45313;-81
2023/12/27 01:53:29;;;;;;;;;0.00;0.00;;;;;14.55;100.00;101726.50;5037221;28;46473;-81
2023/12/27 01:55:55;;;;;;;;;0.00;0.00;;;;;14.51;100.00;101715.25;5037244;28;45353;-81
2023/12/27 01:58:22;;;;;;;;;0.00;0.00;;;;;14.55;100.00;101721.25;5037588;28;45387;-81
2023/12/27 02:00:48;;;;;;;;;0.00;0.00;;;;;14.50;100.00;101708.28;5037590;28;45473;-81
2023/12/27 02:03:13;;;;;;;;;0.00;0.00;;;;;14.47;100.00;101688.28;5037284;28;46550;-81
2023/12/27 02:05:40;;;;;;;;;0.00;0.00;;;;;14.50;100.00;101679.44;5055372;28;45329;-81
2023/12/27 02:08:06;;;;;;;;;0.00;0.00;;;;;14.41;100.00;101690.22;5037602;28;45338;-81
2023/12/27 02:10:32;;;;;;;;;0.00;0.00;;;;;14.46;100.00;101689.16;5037285;28;45365;-81
2023/12/27 02:13:05;;;;;;;;;0.00;0.00;;;;;14.48;100.00;101710.94;5054257;28;73535;-81
2023/12/27 02:15:31;;;;;;;;;0.00;0.00;;;;;14.50;100.00;101724.88;5037380;28;45421;-81
2023/12/27 02:17:59;;;;;;;;;0.00;0.00;;;;;14.46;100.00;101698.78;5037435;28;45334;-81
2023/12/27 02:20:25;;;;;;;;;0.00;0.00;;;;;14.50;100.00;101684.69;5041011;28;45577;-81
2023/12/27 02:22:52;;;;;;;;;0.00;0.00;;;;;14.43;100.00;101680.53;5058194;28;53059;-81
2023/12/27 02:25:18;;;;;;;;;0.00;0.00;;;;;14.43;100.00;101681.41;5058262;28;45355;-81
2023/12/27 02:27:45;;;;;;;;;0.00;0.00;;;;;14.42;100.00;101686.69;5040775;28;45469;-81
2023/12/27 02:30:21;;;;;;;;;0.00;0.00;;;;;14.41;100.00;101679.72;5040749;28;45348;-81
2023/12/27 02:32:47;;;;;;;;;1.50;0.00;;;;;14.36;100.00;101689.47;5058539;28;46396;-81
2023/12/27 02:35:12;;;;;;;;;0.50;0.50;;;;;14.36;100.00;101695.59;5040407;28;45368;-81
2023/12/27 02:37:38;;;;;;;;;0.00;0.00;;;;;14.32;100.00;101702.69;5058506;28;45256;-81
2023/12/27 02:40:04;;;;;;;;;0.00;0.00;;;;;14.33;100.00;101695.69;5057132;28;70409;-81
2023/12/27 02:42:29;;;;;;;;;0.50;0.50;;;;;14.33;100.00;101680.81;5058180;28;46523;-81
2023/12/27 02:44:55;;;;;;;;;0.00;0.00;;;;;14.31;100.00;101677.38;5040083;28;45337;-81
2023/12/27 02:47:20;;;;;;;;;0.00;0.00;;;;;14.34;100.00;101665.97;5057465;28;69429;-81
2023/12/27 02:49:46;;;;;;;;;0.00;0.00;;;;;14.27;100.00;101657.44;5057351;28;70327;-81
2023/12/27 02:52:11;;;;;;;;;0.00;0.00;;;;;14.28;100.00;101650.44;5039185;28;71463;-81
2023/12/27 02:54:36;;;;;;;;;0.00;0.00;;;;;14.24;100.00;101648.81;5039621;28;45365;-81
2023/12/27 02:57:02;;;;;;;;;0.00;0.00;;;;;14.22;100.00;101655.84;5058007;28;45448;-81
2023/12/27 02:59:27;;;;;;;;;0.00;0.00;;;;;14.24;100.00;101672.38;5058274;28;45433;-81
2023/12/27 03:01:52;;;;;;;;;0.00;0.00;;;;;14.28;100.00;101669.63;5039091;28;73077;-81
2023/12/27 03:04:18;;;;;;;;;0.00;0.00;;;;;14.28;100.00;101671.38;5057939;28;45416;-81
2023/12/27 03:06:43;;;;;;;;;0.00;0.00;;;;;14.33;100.00;101649.38;5056981;28;68823;-81
2023/12/27 03:09:08;;;;;;;;;0.00;0.00;;;;;14.31;100.00;101660.81;5056681;28;69638;-82
2023/12/27 03:11:34;;;;;;;;;0.00;0.00;;;;;14.50;100.00;101658.50;5057574;28;57622;-82
2023/12/27 03:13:59;;;;;;;;;0.00;0.00;;;;;14.57;100.00;101649.56;5038905;28;73566;-81
2023/12/27 03:16:26;;;;;;;;;0.00;0.00;;;;;14.56;100.00;101632.13;5057864;28;45303;-81
2023/12/27 03:18:51;;;;;;;;;0.00;0.00;;;;;14.57;100.00;101636.47;5057733;28;45405;-81
2023/12/27 03:21:16;;;;;;;;;0.00;0.00;;;;;14.57;100.00;101630.34;5057328;28;55751;-81
2023/12/27 03:23:42;;;;;;;;;0.00;0.00;;;;;14.45;100.00;101631.56;5056209;28;72103;-81
2023/12/27 03:26:07;;;;;;;;;0.00;0.00;;;;;14.41;100.00;101633.47;5057706;28;45408;-81
2023/12/27 03:28:32;;;;;;;;;0.00;0.00;;;;;14.38;100.00;101638.78;5057650;28;45436;-81
2023/12/27 03:30:58;;;;;;;;;0.00;0.00;;;;;14.39;100.00;101621.28;5055347;28;63384;-81
2023/12/27 03:33:23;;;;;;;;;0.00;0.00;;;;;14.40;100.00;101618.63;5057405;28;45455;-81
2023/12/27 03:35:48;;;;;;;;;0.00;0.00;;;;;14.39;100.00;101614.28;5056873;28;62296;-81
2023/12/27 03:38:14;;;;;;;;;0.00;0.00;;;;;14.41;100.00;101615.13;5038938;28;45295;-81
2023/12/27 03:40:39;;;;;;;;;0.00;0.00;;;;;14.43;100.00;101605.47;5038826;28;62195;-81
2023/12/27 03:43:04;;;;;;;;;0.00;0.00;;;;;14.42;100.00;101597.63;5021442;28;72083;-81
2023/12/27 03:45:30;;;;;;;;;0.00;0.00;;;;;14.44;100.00;101595.81;5056186;28;68297;-81
2023/12/27 03:47:55;;;;;;;;;1.00;1.00;;;;;14.44;100.00;101595.81;5056554;28;62873;-81
2023/12/27 03:50:20;;;;;;;;;0.00;0.00;;;;;14.45;100.00;101601.03;5056308;28;72230;-81
2023/12/27 03:52:45;;;;;;;;;8.00;8.00;;;;;14.46;100.00;101604.50;5021055;28;73262;-81
2023/12/27 03:55:11;;;;;;;;;0.00;0.00;;;;;14.48;100.00;101600.06;5056577;28;64861;-81
2023/12/27 03:57:37;;;;;;;;;0.00;0.00;;;;;14.47;100.00;101603.59;5057173;28;45382;-81
2023/12/27 04:00:04;;;;;;;;;0.00;0.00;;;;;14.52;100.00;101596.44;5056904;28;46392;-81
2023/12/27 04:02:29;;;;;;;;;0.00;0.00;;;;;14.53;100.00;101600.78;5056998;28;45301;-81
2023/12/27 04:04:54;;;;;;;;;0.00;0.00;;;;;14.53;100.00;101598.16;5038132;28;69152;-81
2023/12/27 04:07:20;;;;;;;;;0.00;0.00;;;;;14.50;100.00;101588.66;5055784;28;70320;-81
2023/12/27 04:09:45;;;;;;;;;0.00;0.00;;;;;14.51;100.00;101576.41;5056943;28;46042;-81
2023/12/27 04:12:10;;;;;;;;;0.00;0.00;;;;;14.53;100.00;101578.03;5056843;28;45353;-81
2023/12/27 04:14:36;;;;;;;;;0.00;0.00;;;;;14.55;100.00;101577.16;5056810;28;45390;-81
2023/12/27 04:17:01;;;;;;;;;0.00;0.00;;;;;14.55;100.00;101577.16;5056972;28;45275;-81
2023/12/27 04:19:26;;;;;;;;;0.00;0.00;;;;;14.50;100.00;101570.31;5055301;28;75571;-82
2023/12/27 04:21:52;;;;;;;;;0.00;0.00;;;;;14.45;100.00;101555.63;5055728;28;73029;-81
2023/12/27 04:24:17;;;;;;;;;0.00;0.00;;;;;14.40;100.00;101553.16;5056285;28;59956;-81
2023/12/27 04:26:42;;;;;;;;;3.00;3.00;;;;;14.38;100.00;101544.50;5055641;28;70366;-81
2023/12/27 04:29:08;;;;;;;;;0.00;0.00;;;;;14.35;100.00;101544.59;5055597;28;70139;-81
2023/12/27 04:31:34;;;;;;;;;0.00;0.00;;;;;14.28;100.00;101545.69;5056654;28;45404;-81
2023/12/27 04:34:00;;;;;;;;;0.00;0.00;;;;;14.26;100.00;101553.59;5038454;28;45308;-81
2023/12/27 04:36:25;;;;;;;;;0.00;0.00;;;;;14.28;100.00;101545.69;5056668;28;45372;-81
2023/12/27 04:38:50;;;;;;;;;0.00;0.00;;;;;14.29;100.00;101534.31;5021548;28;47124;-81
2023/12/27 04:41:17;;;;;;;;;0.00;0.00;;;;;14.29;100.00;101540.41;5054581;28;72245;-81
2023/12/27 04:43:42;;;;;;;;;0.00;0.00;;;;;14.29;100.00;101527.31;5038552;28;45393;-81
2023/12/27 04:46:08;;;;;;;;;0.00;0.00;;;;;14.28;100.00;101532.59;5056707;28;45415;-81
2023/12/27 04:48:33;;;;;;;;;0.00;0.00;;;;;14.27;100.00;101533.50;5055855;28;45324;-81
2023/12/27 04:50:59;;;;;;;;;0.00;0.00;;;;;14.33;100.00;101538.53;5038174;28;45625;-81
2023/12/27 04:53:24;;;;;;;;;0.00;0.00;;;;;14.30;100.00;101536.88;5055629;28;66836;-81
2023/12/27 04:55:49;;;;;;;;;0.00;0.00;;;;;14.33;100.00;101539.38;5055660;28;58716;-81
2023/12/27 04:58:15;;;;;;;;;0.00;0.00;;;;;14.31;100.00;101542.97;5055335;28;63204;-82
2023/12/27 05:00:40;;;;;;;;;0.00;0.00;;;;;14.28;100.00;101530.84;5056239;28;45376;-81
2023/12/27 05:03:05;;;;;;;;;0.00;0.00;;;;;14.31;100.00;101517.63;5037474;28;54301;-81
2023/12/27 05:05:31;;;;;;;;;0.00;0.00;;;;;14.27;100.00;101523.88;5055168;28;69802;-81
2023/12/27 05:07:56;;;;;;;;;0.00;0.00;;;;;14.26;100.00;101540.50;5055019;28;74484;-81
2023/12/27 05:10:21;;;;;;;;;0.00;0.00;;;;;14.24;100.00;101531.81;5056073;28;45526;-81
2023/12/27 05:12:47;;;;;;;;;0.00;0.00;;;;;14.22;100.00;101522.31;5055143;28;67392;-81
2023/12/27 05:15:12;;;;;;;;;0.00;0.00;;;;;14.24;100.00;101528.34;5037297;28;64656;-81
2023/12/27 05:17:38;;;;;;;;;0.00;0.00;;;;;14.22;100.00;101541.50;5054489;28;75481;-81
2023/12/27 05:20:04;;;;;;;;;0.00;0.00;;;;;14.24;100.00;101551.91;5038086;28;45469;-81
2023/12/27 05:22:33;;;;;;;;;0.00;0.00;;;;;14.20;100.00;101534.59;5038007;28;45365;-81
2023/12/27 05:24:59;;;;;;;;;0.00;0.00;;;;;14.20;100.00;101518.88;5056116;28;45427;-80
2023/12/27 05:27:24;;;;;;;;;0.00;0.00;;;;;14.22;100.00;101523.16;5037883;28;46282;-81
2023/12/27 05:29:49;;;;;;;;;0.00;0.00;;;;;14.22;100.00;101530.16;5055687;28;49850;-81
2023/12/27 05:32:15;;;;;;;;;0.00;0.00;;;;;14.22;100.00;101536.25;5054668;28;67598;-81
2023/12/27 05:34:40;;;;;;;;;0.00;0.00;;;;;14.26;100.00;101531.78;5055922;28;45441;-81
2023/12/27 05:37:06;;;;;;;;;0.00;0.00;;;;;14.19;100.00;101539.00;5054558;28;75444;-81
2023/12/27 05:39:31;;;;;;;;;0.00;0.00;;;;;14.20;100.00;101538.06;5055567;28;45272;-81
2023/12/27 05:41:57;;;;;;;;;3.00;3.00;;;;;14.22;100.00;101533.63;5037605;28;45355;-81
2023/12/27 05:44:22;;;;;;;;;0.00;0.00;;;;;14.22;100.00;101525.78;5055643;28;45482;-81
2023/12/27 05:46:47;;;;;;;;;0.00;0.00;;;;;14.21;100.00;101512.72;5054314;28;75406;-81
2023/12/27 05:49:13;;;;;;;;;0.00;0.00;;;;;14.21;100.00;101503.13;5037586;28;45443;-81
2023/12/27 05:51:39;;;;;;;;;0.00;0.00;;;;;14.22;100.00;101517.91;5055855;28;45321;-81
2023/12/27 05:54:05;;;;;;;;;0.00;0.00;;;;;14.21;100.00;101510.09;5059073;28;45368;-81
2023/12/27 05:56:30;;;;;;;;;0.00;0.00;;;;;14.21;100.00;101515.34;5059054;28;46387;-81
2023/12/27 05:58:55;;;;;;;;;0.00;0.00;;;;;14.16;100.00;101517.28;5059093;28;45266;-81
2023/12/27 06:01:21;;;;;;;;;0.00;0.00;;;;;14.10;100.00;101508.72;5040080;28;66636;-81
2023/12/27 06:03:46;;;;;;;;;0.00;0.00;;;;;14.10;100.00;101511.31;5059086;28;45354;-81
2023/12/27 06:06:12;;;;;;;;;0.00;0.00;;;;;14.07;100.00;101508.78;5059015;28;45412;-81
2023/12/27 06:08:37;;;;;;;;;0.75;0.75;;;;;14.02;100.00;101510.72;5059114;28;45377;-82
2023/12/27 06:11:03;;;;;;;;;0.00;0.00;;;;;14.00;100.00;101511.66;5058147;28;69473;-81
2023/12/27 06:13:28;;;;;;;;;0.00;0.00;;;;;13.99;100.00;101518.66;5059011;28;45438;-81
2023/12/27 06:15:53;;;;;;;;;0.00;0.00;;;;;13.97;100.00;101523.09;5057410;28;72889;-81
2023/12/27 06:18:19;;;;;;;;;0.00;0.00;;;;;13.91;100.00;101518.00;5057871;28;69934;-81
2023/12/27 06:20:45;;;;;;;;;0.00;0.00;;;;;13.93;100.00;101511.84;5058843;28;45452;-81
2023/12/27 06:23:10;;;;;;;;;0.00;0.00;;;;;13.96;100.00;101518.75;5040961;28;45518;-81
2023/12/27 06:25:35;;;;;;;;;0.00;0.00;;;;;13.93;100.00;101522.31;5040380;28;56551;-82
2023/12/27 06:28:01;;;;;;;;;0.00;0.00;;;;;13.97;100.00;101522.19;5039819;28;65635;-81
2023/12/27 06:30:27;;;;;;;;;0.00;0.00;;;;;13.94;100.00;101512.69;5058384;28;45460;-81
2023/12/27 06:32:53;;;;;;;;;0.00;0.00;;;;;13.97;100.00;101520.47;5058901;28;45470;-81
2023/12/27 06:35:18;;;;;;;;;0.00;0.00;;;;;13.93;100.00;101522.31;5058532;28;46218;-82
2023/12/27 06:37:43;;;;;;;;;0.00;0.00;;;;;13.92;100.00;101519.75;5057568;28;70509;-81
2023/12/27 06:40:09;;;;;;;;;0.00;0.00;;;;;13.86;100.00;101518.16;5039805;28;59414;-81
2023/12/27 06:42:35;;;;;;;;;0.00;0.00;;;;;13.84;100.00;101511.28;5040309;28;45373;-81
2023/12/27 06:45:01;;;;;;;;;0.00;0.00;;;;;13.85;100.00;101507.75;5058010;28;46454;-81
2023/12/27 06:47:26;;;;;;;;;0.00;0.00;;;;;13.86;100.00;101505.09;5058346;28;45437;-81
2023/12/27 06:49:51;;;;;;;;;0.00;0.00;;;;;13.83;100.00;101506.94;5039814;28;62895;-81
2023/12/27 06:52:16;;;;;;;;;0.00;0.00;;;;;13.82;100.00;101507.81;5057499;28;69257;-81
2023/12/27 06:54:42;;;;;;;;;0.00;0.00;;;;;13.73;100.00;101504.59;5057582;28;60335;-81
2023/12/27 06:57:07;;;;;;;;;2.00;2.00;;;;;13.75;100.00;101507.16;5057187;28;71801;-81
2023/12/27 06:59:32;;;;;;;;;0.00;0.00;;;;;13.70;100.00;101502.06;5056752;28;69056;-81
2023/12/27 07:01:58;;;;;;;;;0.00;0.00;;;;;13.73;100.00;101501.97;5057237;28;70255;-81
2023/12/27 07:04:23;;;;;;;;;0.00;0.00;;;;;13.70;100.00;101496.81;5056321;28;73956;-81
2023/12/27 07:06:48;;;;;;;;;0.00;0.00;;;;;13.63;100.00;101497.06;5057836;28;45347;-81
2023/12/27 07:09:15;;;;;;;;;0.00;0.00;;;;;13.68;100.00;101497.78;5057924;28;50104;-81
2023/12/27 07:11:41;;;;;;;;;0.00;0.00;;;;;13.69;100.00;101500.34;5040229;28;45327;-81
2023/12/27 07:14:06;;;;;;;;;0.00;0.00;;;;;13.66;100.00;101495.22;5056693;28;73684;-81
2023/12/27 07:16:31;;;;;;;;;0.00;0.00;;;;;13.66;100.00;101497.81;5057682;28;46751;-81
2023/12/27 07:18:57;;;;;;;;;0.00;0.00;;;;;13.62;100.00;101490.97;5058046;28;45298;-81
2023/12/27 07:21:22;;;;;;;;;0.00;0.00;;;;;13.61;100.00;101483.16;5058026;28;45344;-81
2023/12/27 07:23:47;;;;;;;;;1.00;1.00;;;;;13.50;100.00;101489.59;5056936;28;72489;-81
2023/12/27 07:26:13;;;;;;;;;0.00;0.00;;;;;13.52;100.00;101497.38;5057239;28;53065;-81
2023/12/27 07:28:39;;;;;;;;;0.00;0.00;;;;;13.44;100.00;101496.75;5057511;28;45301;-81
2023/12/27 07:31:05;;;;;;;;;0.00;0.00;;;;;13.42;100.00;101501.16;5057813;28;45555;-81
2023/12/27 07:33:31;;;;;;;;;0.00;0.00;;;;;13.42;100.00;101485.47;5039605;28;46188;-81
2023/12/27 07:35:56;;;;;;;;;0.00;0.00;;;;;13.39;100.00;101475.97;5057567;28;45322;-81
2023/12/27 07:38:23;;;;;;;;;0.00;0.00;;;;;13.39;100.00;101483.81;5057586;28;45340;-81
2023/12/27 07:40:48;;;;;;;;;0.00;0.00;;;;;13.36;100.00;101489.13;5057499;28;45414;-81
2023/12/27 07:43:14;;;;;;;;;0.00;0.00;;;;;13.39;100.00;101490.78;5056175;28;75664;-81
2023/12/27 07:45:39;;;;;;;;;0.00;0.00;;;;;13.35;100.00;101488.28;5057182;28;45661;-81
2023/12/27 07:48:05;;;;;;;;;0.00;0.00;;;;;13.32;100.00;101485.72;5057630;28;45451;-81
2023/12/27 07:50:30;;;;;;;;;0.00;0.00;;;;;13.35;100.00;101483.03;5039549;28;45369;-81
2023/12/27 07:52:56;;;;;;;;;0.00;0.00;;;;;13.25;100.00;101485.94;5057314;28;45348;-81
2023/12/27 07:55:21;;;;;;;;;0.00;0.00;;;;;13.30;100.00;101474.47;5057380;28;45358;-81
2023/12/27 07:57:47;;;;;;;;;0.00;0.00;;;;;13.30;100.00;101473.59;5057027;28;45348;-81
2023/12/27 08:00:15;;;;;;;;;0.00;0.00;;;;;13.28;100.00;101480.59;5057458;28;45520;-81
2023/12/27 08:02:43;;;;;;;;;0.00;0.00;;;;;13.24;100.00;101478.97;5057096;28;45645;-81
2023/12/27 08:05:08;;;;;;;;;0.00;0.00;;;;;13.28;100.00;101484.09;5057249;28;45459;-81
2023/12/27 08:07:33;;;;;;;;;0.00;0.00;;;;;13.28;100.00;101477.97;5056581;28;60984;-81
2023/12/27 08:09:59;;;;;;;;;0.00;0.00;;;;;13.30;100.00;101479.69;5056141;28;68219;-81
2023/12/27 08:12:24;;;;;;;;;0.00;0.00;;;;;13.32;100.00;101469.19;5055871;28;69098;-81
2023/12/27 08:14:49;;;;;;;;;0.00;0.00;;;;;13.39;100.00;101468.13;5037946;28;72611;-81
2023/12/27 08:17:15;;;;;;;;;0.00;0.00;;;;;13.40;100.00;101467.22;5055693;28;45421;-81
2023/12/27 08:19:41;;;;;;;;;0.00;0.00;;;;;13.48;100.00;101475.69;5057104;28;45346;-81
2023/12/27 08:22:06;;;;;;;;;0.00;0.00;;;;;13.49;100.00;101481.78;5039022;28;46218;-81
2023/12/27 08:24:31;;;;;;;;;0.00;0.00;;;;;13.49;100.00;101485.25;5056899;28;45415;-81
2023/12/27 08:26:57;;;;;;;;;0.00;0.00;;;;;13.52;100.00;101495.63;5055607;28;65707;-81
2023/12/27 08:29:22;;;;;;;;;0.00;0.00;;;;;13.57;100.00;101486.78;5037870;28;69748;-81
2023/12/27 08:31:47;;;;;;;;;0.00;0.00;;;;;13.59;100.00;101477.97;5055765;28;76322;-81
2023/12/27 08:34:13;;;;;;;;;0.00;0.00;;;;;13.61;100.00;101488.41;5037876;28;70407;-81
2023/12/27 08:36:39;;;;;;;;;0.00;0.00;;;;;13.61;100.00;101480.56;5055730;28;68097;-81
2023/12/27 08:39:04;;;;;;;;;0.00;0.00;;;;;13.58;100.00;101476.28;5056636;28;45207;-81
2023/12/27 08:41:29;;;;;;;;;0.00;0.00;;;;;13.60;100.00;101477.09;5055303;28;65073;-81
2023/12/27 08:43:55;;;;;;;;;0.00;0.00;;;;;13.53;100.00;101473.78;5055831;28;56936;-81
2023/12/27 08:46:20;;;;;;;;;0.00;0.00;;;;;13.55;100.00;101478.97;5037781;28;70389;-81
2023/12/27 08:48:46;;;;;;;;;0.00;0.00;;;;;13.56;100.00;101478.09;5038566;28;45417;-81
2023/12/27 08:51:12;;;;;;;;;0.00;0.00;;;;;13.59;100.00;101470.13;5056358;28;45340;-82
2023/12/27 08:53:37;;;;;;;;;0.00;0.00;;;;;13.60;100.00;101460.53;5038629;28;45338;-81
2023/12/27 08:56:02;;;;;;;;;0.00;0.00;;;;;13.64;100.00;101462.16;5055176;28;65435;-81
2023/12/27 08:58:28;;;;;;;;;0.00;0.00;;;;;13.57;100.00;101464.09;5056415;28;45456;-81
2023/12/27 09:00:53;;;;;;;;;0.00;0.00;;;;;13.61;100.00;101470.94;5055371;28;73558;-81
2023/12/27 09:03:18;;;;;;;;;0.00;0.00;;;;;13.60;100.00;101471.84;5038128;28;45409;-81
2023/12/27 09:05:45;;;;;;;;;0.00;0.00;;;;;13.56;100.00;101465.00;5055547;28;68224;-81
2023/12/27 09:08:10;;;;;;;;;0.00;0.00;;;;;13.60;100.00;101461.41;5056216;28;45378;-81
2023/12/27 09:10:35;;;;;;;;;2.67;2.67;;;;;13.69;100.00;101466.34;5055563;28;62321;-80
2023/12/27 09:13:01;;;;;;;;;0.00;0.00;;;;;13.73;100.00;101461.88;5056198;28;45334;-81
2023/12/27 09:15:26;;;;;;;;;0.00;0.00;;;;;13.75;100.00;101455.69;5055198;28;69248;-81
2023/12/27 09:17:51;;;;;;;;;0.00;0.00;;;;;13.81;100.00;101462.50;5055187;28;68450;-81
2023/12/27 09:20:17;;;;;;;;;0.00;0.00;;;;;13.83;100.00;101462.44;5055923;28;46586;-81
2023/12/27 09:22:42;;;;;;;;;4.00;0.00;;;;;13.85;100.00;101461.47;5054955;28;71120;-81
2023/12/27 09:25:08;;;;;;;;;0.00;0.00;;;;;13.84;100.00;101466.78;5036861;28;67056;-81
2023/12/27 09:27:33;;;;;;;;;0.00;0.00;;;;;13.88;100.00;101456.16;5037488;28;45568;-81
2023/12/27 09:29:58;;;;;;;;;0.00;0.00;;;;;13.94;100.00;101457.72;5037964;28;45528;-81
2023/12/27 09:32:24;;;;;;;;;0.00;0.00;;;;;13.99;100.00;101447.97;5036937;28;70837;-81
2023/12/27 09:34:49;;;;;;;;;0.00;0.00;;;;;14.00;100.00;101444.44;5055923;28;45546;-81
2023/12/27 09:37:14;;;;;;;;;0.00;0.00;;;;;14.08;100.00;101450.31;5054974;28;68103;-82
2023/12/27 09:39:40;;;;;;;;;0.00;0.00;;;;;14.18;100.00;101453.47;5055258;28;45512;-81
2023/12/27 09:42:05;;;;;;;;;0.00;0.00;;;;;14.28;100.00;101446.16;5037696;28;45454;-81
2023/12/27 09:44:32;;;;;;;;;0.00;0.00;;;;;14.29;100.00;101453.97;5036663;28;68433;-81
2023/12/27 09:46:59;;;;;;;;;0.00;0.00;;;;;14.38;100.00;101458.06;5038097;28;45367;-82
2023/12/27 09:49:24;;;;;;;;;0.00;0.00;;;;;14.42;100.00;101461.44;5037635;28;46176;-81
2023/12/27 09:51:50;;;;;;;;;0.00;0.00;;;;;14.38;100.00;101450.22;5054939;28;66236;-81
2023/12/27 09:54:17;;;;;;;;;0.00;0.00;;;;;14.39;100.00;101448.44;5036663;28;63349;-81
2023/12/27 09:56:43;;;;;;;;;0.00;0.00;;;;;14.49;100.00;101436.75;5037961;28;45410;-81
2023/12/27 09:59:13;;;;;;;;;0.00;0.00;;;;;14.58;100.00;101441.72;5037438;28;46566;-81
2023/12/27 10:01:40;;;;;;;;;0.00;0.00;;;;;14.63;100.00;101434.53;5037738;28;45398;-81
2023/12/27 10:04:22;;;;;;;;;0.00;0.00;;;;;14.67;100.00;101423.06;5037860;28;45445;-81
2023/12/27 10:06:49;;;;;;;;;0.00;0.00;;;;;14.70;100.00;101430.78;5037942;28;45493;-81
2023/12/27 10:09:14;;;;;;;;;0.00;0.00;;;;;14.82;100.00;101426.00;5055154;28;45495;-81
2023/12/27 10:11:41;;;;;;;;;0.00;0.00;;;;;14.95;100.00;101424.69;5055545;28;45471;-81
2023/12/27 10:14:10;;;;;;;;;0.00;0.00;;;;;14.95;100.00;101415.94;5037720;28;46174;-81
2023/12/27 10:16:38;;;;;;;;;0.00;0.00;;;;;15.04;100.00;101410.38;5055479;28;45435;-81
2023/12/27 10:19:10;;;;;;;;;0.00;0.00;;;;;15.13;100.00;101409.19;5055160;28;47274;-81
2023/12/27 10:21:42;;;;;;;;;0.00;0.00;;;;;15.18;100.00;101410.72;5055463;28;45364;-80
2023/12/27 10:24:08;;;;;;;;;0.00;0.00;;;;;15.20;100.00;101408.03;5055189;28;45486;-81
2023/12/27 10:26:35;;;;;;;;;0.00;0.00;;;;;15.26;100.00;101399.94;5037423;28;45516;-81
2023/12/27 10:29:00;;;;;;;;;0.00;0.00;;;;;15.32;100.00;101404.09;5037084;28;45493;-81
2023/12/27 10:31:26;;;;;;;;;0.00;0.00;;;;;15.36;100.00;101398.69;5037186;28;45357;-81
2023/12/27 10:33:51;;;;;;;;;0.00;0.00;;;;;15.38;100.00;101393.34;5055343;28;45345;-81
2023/12/27 10:36:17;;;;;;;;;0.00;0.00;;;;;15.39;100.00;101385.44;5036356;28;69082;-81
2023/12/27 10:38:45;;;;;;;;;0.00;0.00;;;;;15.53;100.00;101390.16;5036721;28;47003;-81
2023/12/27 10:41:10;;;;;;;;;0.00;0.00;;;;;15.59;100.00;101378.56;5058254;28;45578;-81
2023/12/27 10:43:35;;;;;;;;;0.00;0.00;;;;;15.63;100.00;101374.91;5039945;28;68374;-81
2023/12/27 10:46:10;;;;;;;;;0.00;0.00;;;;;15.77;100.00;101377.00;5059094;28;69186;-81
2023/12/27 10:48:39;;;;;;;;;0.00;0.00;;;;;15.87;100.00;101370.47;5060220;28;45389;-81
2023/12/27 10:51:06;;;;;;;;;0.00;0.00;;;;;15.88;100.00;101356.44;5060235;28;45378;-81
2023/12/27 10:53:34;;;;;;;;;0.00;0.00;;;;;16.02;100.00;101345.34;5041908;28;45487;-82
2023/12/27 10:56:01;;;;;;;;;0.00;0.00;;;;;16.16;100.00;101337.75;5042130;28;45403;-82
2023/12/27 10:58:29;;;;;;;;;0.00;0.00;;;;;16.33;100.00;101334.38;5042948;28;46412;-81
2023/12/27 11:00:55;;;;;;;;;0.00;0.00;;;;;16.72;100.00;101328.28;5042807;28;45466;-80
2023/12/27 11:03:22;;;;;;;;;0.00;0.00;;;;;17.43;100.00;101311.84;5040389;28;68412;-81
2023/12/27 11:05:48;;;;;;;;;0.00;0.00;;;;;17.87;100.00;101322.00;5041363;28;45427;-81
2023/12/27 11:08:15;;;;;;;;;0.00;0.00;;;;;18.17;100.00;101309.03;5039570;28;75614;-81
2023/12/27 11:10:40;;;;;;;;;0.00;0.00;;;;;18.29;100.00;101302.25;5039979;28;45487;-81